Time;durP1;ratioP1;P1;durP2;ratioP2;P2;SDS_P1;SDS_P2;PMS_P1;PMS_P2;Temp;Humidity;BMP_temperature;BMP_pressure;BME280_temperature;BME280_humidity;BME280_pressure;Samples;Min_cycle;Max_cycle;Signal;HPM_P1;HPM_P2
2023/04/27 00:01:19;;;;;;;;;9.25;8.75;;;;;13.40;55.46;101292.88;5090826;27;47444;-68
2023/04/27 00:03:45;;;;;;;;;11.50;9.00;;;;;13.34;55.32;101305.19;5075288;27;45419;-71
2023/04/27 00:06:10;;;;;;;;;10.50;8.50;;;;;13.42;55.71;101315.69;5073949;27;45629;-70
2023/04/27 00:08:36;;;;;;;;;12.50;11.25;;;;;13.42;55.72;101307.78;5090806;27;45582;-72
2023/04/27 00:11:02;;;;;;;;;9.50;9.00;;;;;13.47;56.71;101316.56;5075326;27;47215;-71
2023/04/27 00:13:28;;;;;;;;;11.00;10.50;;;;;13.38;56.68;101297.28;5092714;27;45786;-71
2023/04/27 00:15:53;;;;;;;;;12.50;10.25;;;;;13.49;56.94;101312.19;5075167;27;46178;-70
2023/04/27 00:18:19;;;;;;;;;13.25;10.00;;;;;13.54;56.88;101307.78;5072078;27;45547;-70
2023/04/27 00:20:45;;;;;;;;;10.75;10.25;;;;;13.60;56.39;101311.31;5089340;27;46674;-71
2023/04/27 00:23:11;;;;;;;;;15.50;13.25;;;;;13.60;56.47;101311.31;5078469;27;45515;-70
2023/04/27 00:25:37;;;;;;;;;9.25;9.25;;;;;13.65;56.50;101306.91;5059758;27;45335;-70
2023/04/27 00:28:02;;;;;;;;;11.00;10.00;;;;;13.65;56.27;101301.66;5070255;28;45754;-70
2023/04/27 00:30:28;;;;;;;;;10.75;8.50;;;;;13.68;56.34;101291.09;5065279;28;45467;-71
2023/04/27 00:32:53;;;;;;;;;6.00;6.00;;;;;13.64;56.04;101284.09;5062291;27;45871;-70
2023/04/27 00:35:19;;;;;;;;;7.25;7.25;;;;;13.60;56.05;101285.84;5066210;27;45529;-70
2023/04/27 00:37:45;;;;;;;;;14.00;10.00;;;;;13.60;55.89;101279.72;5090145;27;45910;-69
2023/04/27 00:40:11;;;;;;;;;11.00;10.50;;;;;13.69;55.98;101285.84;5076384;28;45719;-70
2023/04/27 00:42:37;;;;;;;;;9.50;9.50;;;;;13.68;55.67;101289.34;5078962;27;45456;-70
2023/04/27 00:45:04;;;;;;;;;12.75;12.75;;;;;13.70;55.51;101282.31;5091610;27;46138;-72
2023/04/27 00:47:31;;;;;;;;;10.50;9.00;;;;;13.64;55.99;101277.06;5074561;28;45492;-70
2023/04/27 00:49:57;;;;;;;;;11.75;10.25;;;;;13.70;55.59;101279.69;5074900;28;45369;-70
2023/04/27 00:52:24;;;;;;;;;11.25;9.00;;;;;13.66;55.75;101256.00;5082876;27;45534;-70
2023/04/27 00:54:56;;;;;;;;;9.00;8.25;;;;;13.64;55.47;101263.91;5070645;28;45544;-71
2023/04/27 00:57:22;;;;;;;;;10.50;9.25;;;;;13.70;55.76;101273.56;5074755;28;45544;-68
2023/04/27 00:59:47;;;;;;;;;5.25;5.25;;;;;13.64;55.74;101270.91;5073058;28;47200;-70
2023/04/27 01:02:13;;;;;;;;;9.75;6.75;;;;;13.67;55.72;101273.56;5073712;28;45488;-70
2023/04/27 01:04:39;;;;;;;;;7.75;6.50;;;;;13.65;55.77;101262.16;5072781;28;45488;-70
2023/04/27 01:07:05;;;;;;;;;9.50;7.00;;;;;13.73;55.38;101284.06;5075915;28;45448;-71
2023/04/27 01:09:30;;;;;;;;;7.00;7.00;;;;;13.66;55.14;101266.53;5076310;27;45503;-71
2023/04/27 01:11:57;;;;;;;;;10.00;7.75;;;;;13.69;55.60;101264.78;5074154;28;45777;-70
2023/04/27 01:14:22;;;;;;;;;10.00;7.50;;;;;13.63;55.97;101263.91;5072963;28;45412;-72
2023/04/27 01:16:49;;;;;;;;;7.00;7.00;;;;;13.63;56.04;101266.56;5073766;28;45599;-70
2023/04/27 01:19:15;;;;;;;;;11.33;8.00;;;;;13.70;55.80;101278.81;5078408;27;46496;-70
2023/04/27 01:21:41;;;;;;;;;10.00;8.50;;;;;13.67;55.61;101270.94;5076788;27;45514;-70
2023/04/27 01:24:07;;;;;;;;;11.00;9.00;;;;;13.77;55.74;101285.81;5073051;28;45423;-71
2023/04/27 01:26:33;;;;;;;;;17.25;9.00;;;;;13.78;55.80;101288.44;5066021;28;45634;-71
2023/04/27 01:28:58;;;;;;;;;8.50;8.00;;;;;13.72;55.56;101288.47;5073945;28;45476;-71
2023/04/27 01:31:24;;;;;;;;;7.50;7.00;;;;;13.61;56.21;101278.84;5078413;28;45744;-71
2023/04/27 01:33:50;;;;;;;;;9.75;9.00;;;;;13.67;56.08;101294.63;5078391;28;45374;-70
2023/04/27 01:36:15;;;;;;;;;10.75;9.00;;;;;13.51;56.46;101278.84;5076947;28;45365;-70
2023/04/27 01:38:41;;;;;;;;;9.00;9.00;;;;;13.58;56.84;101287.63;5075758;28;45511;-72
2023/04/27 01:41:08;;;;;;;;;12.75;9.75;;;;;13.60;56.79;101277.09;5073784;28;45413;-70
2023/04/27 01:43:34;;;;;;;;;14.50;10.50;;;;;13.49;56.77;101249.00;5077624;27;45372;-72
2023/04/27 01:46:13;;;;;;;;;12.50;12.00;;;;;13.68;55.98;101273.53;5073783;27;45702;-71
2023/04/27 01:48:39;;;;;;;;;9.75;9.75;;;;;13.61;56.28;101255.16;5089332;27;47052;-69
2023/04/27 01:51:05;;;;;;;;;11.25;10.00;;;;;13.58;56.31;101258.66;5073594;27;45564;-70
2023/04/27 01:53:31;;;;;;;;;9.50;9.50;;;;;13.58;56.21;101264.78;5074116;28;45551;-71
2023/04/27 01:55:58;;;;;;;;;18.50;13.25;;;;;13.56;56.59;101265.69;5089945;27;45520;-70
2023/04/27 01:58:24;;;;;;;;;11.00;11.00;;;;;13.51;56.27;101265.69;5073388;27;46179;-69
2023/04/27 02:00:50;;;;;;;;;18.00;13.00;;;;;13.44;56.92;101263.06;5071834;28;45602;-69
2023/04/27 02:03:15;;;;;;;;;14.50;9.75;;;;;13.39;56.69;101247.28;5106374;27;45566;-71
2023/04/27 02:05:41;;;;;;;;;12.75;9.25;;;;;13.49;57.25;101256.03;5091533;27;45579;-71
2023/04/27 02:08:07;;;;;;;;;15.50;12.50;;;;;13.48;56.95;101260.44;5077608;28;45429;-70
2023/04/27 02:10:34;;;;;;;;;12.25;12.25;;;;;13.40;57.08;101249.03;5074262;28;45797;-71
2023/04/27 02:12:59;;;;;;;;;11.25;9.50;;;;;13.47;57.01;101261.28;5073493;28;45836;-70
2023/04/27 02:15:25;;;;;;;;;12.00;10.00;;;;;13.45;57.59;101259.53;5073968;28;45545;-70
2023/04/27 02:17:50;;;;;;;;;13.00;10.75;;;;;13.38;57.29;101240.25;5073396;27;47556;-71
2023/04/27 02:20:16;;;;;;;;;13.25;11.00;;;;;13.42;57.55;101239.38;5090440;27;46692;-70
2023/04/27 02:22:43;;;;;;;;;15.75;13.50;;;;;13.42;57.32;101230.63;5068986;28;45572;-70
2023/04/27 02:25:10;;;;;;;;;16.75;12.50;;;;;13.56;56.74;101261.28;5076933;27;45557;-70
2023/04/27 02:27:40;;;;;;;;;16.50;13.25;;;;;13.51;56.64;101246.41;5074748;28;47559;-71
2023/04/27 02:30:06;;;;;;;;;17.75;13.00;;;;;13.58;56.54;101258.66;5076516;27;45448;-70
2023/04/27 02:32:32;;;;;;;;;12.75;10.75;;;;;13.63;56.82;101266.56;5078778;27;45440;-70
2023/04/27 02:34:58;;;;;;;;;11.50;10.25;;;;;13.52;56.83;101262.16;5076039;27;45761;-70
2023/04/27 02:37:24;;;;;;;;;16.00;13.50;;;;;13.36;56.68;101252.56;5091862;27;47930;-71
2023/04/27 02:39:50;;;;;;;;;11.75;9.75;;;;;13.40;57.08;101269.22;5076390;28;45809;-70
2023/04/27 02:42:16;;;;;;;;;16.50;13.75;;;;;13.29;57.52;101261.34;5075139;28;45713;-72
2023/04/27 02:44:41;;;;;;;;;17.25;13.00;;;;;13.29;57.13;101263.97;5081343;27;45381;-71
2023/04/27 02:47:07;;;;;;;;;12.00;10.50;;;;;13.31;57.23;101262.19;5080932;27;46027;-70
2023/04/27 02:49:33;;;;;;;;;15.25;12.50;;;;;13.16;57.47;101245.50;5079708;28;45560;-71
2023/04/27 02:51:58;;;;;;;;;12.50;12.00;;;;;13.30;57.51;101260.44;5080933;28;45413;-72
2023/04/27 02:54:24;;;;;;;;;11.00;9.50;;;;;13.33;57.41;101256.03;5079801;28;45429;-71
2023/04/27 02:56:50;;;;;;;;;15.50;13.50;;;;;13.30;56.93;101250.78;5076666;27;46382;-70
2023/04/27 02:59:15;;;;;;;;;16.75;12.25;;;;;13.27;57.09;101258.69;5075879;28;45495;-70
2023/04/27 03:01:41;;;;;;;;;16.25;13.75;;;;;13.30;57.52;101273.59;5078909;28;45423;-70
2023/04/27 03:04:06;;;;;;;;;17.25;16.00;;;;;13.25;57.06;101255.16;5075120;27;45547;-70
2023/04/27 03:06:32;;;;;;;;;20.00;17.00;;;;;13.22;56.92;101259.56;5076086;28;46197;-70
2023/04/27 03:08:57;;;;;;;;;17.25;16.75;;;;;13.25;57.01;101267.44;5076597;27;45507;-70
2023/04/27 03:11:23;;;;;;;;;15.50;13.25;;;;;13.23;57.11;101267.44;5079559;27;45299;-71
2023/04/27 03:13:49;;;;;;;;;18.25;14.25;;;;;13.20;57.53;101263.94;5075670;28;45639;-70
2023/04/27 03:16:15;;;;;;;;;19.00;13.50;;;;;13.18;57.62;101269.19;5077633;28;46093;-71
2023/04/27 03:18:40;;;;;;;;;15.50;15.50;;;;;13.19;57.53;101256.91;5077475;27;45377;-71
2023/04/27 03:21:10;;;;;;;;;16.50;15.00;;;;;13.18;57.55;101257.81;5075942;28;45504;-70
2023/04/27 03:23:36;;;;;;;;;20.75;16.75;;;;;13.25;58.45;101270.94;5075609;28;45358;-71
2023/04/27 03:26:06;;;;;;;;;18.25;14.00;;;;;13.23;57.52;101272.69;5070225;28;46333;-71
2023/04/27 03:28:32;;;;;;;;;13.00;12.25;;;;;13.20;57.77;101277.09;5062460;28;45358;-70
2023/04/27 03:30:57;;;;;;;;;17.50;16.50;;;;;13.21;57.77;101281.47;5076119;28;45446;-69
2023/04/27 03:33:23;;;;;;;;;21.50;16.25;;;;;13.14;57.87;101270.06;5080328;27;45399;-70
2023/04/27 03:35:56;;;;;;;;;18.25;15.50;;;;;13.12;57.67;101262.19;5080116;28;46090;-69
2023/04/27 03:38:22;;;;;;;;;19.00;16.00;;;;;13.11;58.12;101273.56;5079026;27;45704;-71
2023/04/27 03:40:48;;;;;;;;;15.50;14.75;;;;;13.09;57.94;101271.81;5072130;28;45587;-71
2023/04/27 03:43:15;;;;;;;;;23.50;16.00;;;;;12.99;58.38;101272.69;5078916;27;45575;-71
2023/04/27 03:45:41;;;;;;;;;18.25;15.25;;;;;12.87;58.63;101263.06;5095293;27;47825;-69
2023/04/27 03:48:06;;;;;;;;;20.00;17.00;;;;;12.91;58.75;101268.31;5079492;28;45598;-71
2023/04/27 03:50:32;;;;;;;;;17.75;14.00;;;;;12.94;59.01;101273.56;5080289;28;45417;-71
2023/04/27 03:52:58;;;;;;;;;18.25;15.75;;;;;12.92;58.99;101261.28;5075917;28;45482;-70
2023/04/27 03:55:24;;;;;;;;;15.50;13.50;;;;;12.98;58.42;101263.03;5075978;27;46109;-71
2023/04/27 03:57:50;;;;;;;;;17.75;16.25;;;;;12.99;59.06;101277.97;5075160;28;45445;-71
2023/04/27 04:00:17;;;;;;;;;18.00;16.75;;;;;12.96;58.68;101270.94;5110483;27;45421;-70
2023/04/27 04:02:45;;;;;;;;;18.50;15.25;;;;;12.96;58.64;101265.69;5075582;28;45460;-71
2023/04/27 04:05:13;;;;;;;;;20.25;12.50;;;;;12.87;59.14;101278.81;5070465;28;46311;-71
2023/04/27 04:07:42;;;;;;;;;14.25;12.75;;;;;12.76;59.47;101264.78;5054706;27;45435;-70
2023/04/27 04:10:12;;;;;;;;;11.25;9.25;;;;;12.75;59.63;101268.28;5057247;27;45609;-71
2023/04/27 04:12:37;;;;;;;;;17.50;11.75;;;;;12.81;59.72;101270.91;5072115;27;45515;-70
2023/04/27 04:15:06;;;;;;;;;14.75;11.00;;;;;12.82;59.51;101270.06;5056411;27;45582;-70
2023/04/27 04:17:32;;;;;;;;;13.50;12.75;;;;;12.76;59.61;101255.13;5087388;27;45393;-71
2023/04/27 04:19:59;;;;;;;;;20.25;15.50;;;;;12.79;59.95;101270.03;5058247;27;45402;-70
2023/04/27 04:22:25;;;;;;;;;23.25;18.50;;;;;12.75;59.71;101268.28;5069006;27;45433;-70
2023/04/27 04:24:50;;;;;;;;;16.25;14.00;;;;;12.72;59.39;101261.28;5056840;27;46591;-69
2023/04/27 04:27:18;;;;;;;;;20.00;13.00;;;;;12.79;58.94;101264.78;5057524;27;45741;-69
2023/04/27 04:29:47;;;;;;;;;22.00;18.00;;;;;12.68;59.39;101262.16;5058140;28;45365;-67
2023/04/27 04:32:16;;;;;;;;;18.50;14.75;;;;;12.69;58.97;101283.19;5055694;27;45401;-70
2023/04/27 04:34:42;;;;;;;;;12.00;10.50;;;;;12.73;59.47;101278.78;5056406;27;45491;-69
2023/04/27 04:37:07;;;;;;;;;17.00;12.50;;;;;12.59;59.44;101262.13;5057859;27;45782;-71
2023/04/27 04:39:33;;;;;;;;;18.75;16.75;;;;;12.71;59.06;101277.91;5090234;27;45675;-71
2023/04/27 04:41:58;;;;;;;;;20.50;14.00;;;;;12.46;59.35;101225.31;5057291;27;45681;-69
2023/04/27 04:44:24;;;;;;;;;21.25;17.25;;;;;12.70;59.25;101274.41;5073772;27;47575;-69
2023/04/27 04:46:50;;;;;;;;;20.00;14.25;;;;;12.73;59.32;101269.16;5052979;27;45647;-69
2023/04/27 04:49:16;;;;;;;;;20.00;15.50;;;;;12.71;59.66;101270.91;5086674;27;45452;-70
2023/04/27 04:51:43;;;;;;;;;15.75;15.25;;;;;12.69;58.84;101274.41;5059702;28;45426;-70
2023/04/27 04:54:09;;;;;;;;;19.75;16.00;;;;;12.57;59.35;101259.47;5053534;27;45496;-69
2023/04/27 04:56:35;;;;;;;;;12.75;9.50;;;;;12.68;58.75;101273.53;5061656;27;45421;-72
2023/04/27 04:59:01;;;;;;;;;22.00;19.00;;;;;12.70;58.77;101268.28;5073416;27;45561;-69
2023/04/27 05:01:26;;;;;;;;;21.00;14.50;;;;;12.67;59.11;101266.53;5056987;27;45515;-70
2023/04/27 05:03:52;;;;;;;;;19.75;17.00;;;;;12.66;59.11;101262.13;5054080;27;46632;-68
2023/04/27 05:06:17;;;;;;;;;17.00;16.00;;;;;12.63;59.30;101254.25;5086672;27;45410;-69
2023/04/27 05:08:43;;;;;;;;;16.25;16.25;;;;;12.71;58.83;101278.78;5052757;28;45829;-70
2023/04/27 05:11:08;;;;;;;;;20.50;15.25;;;;;12.65;58.75;101263.03;5054246;28;45434;-70
2023/04/27 05:13:34;;;;;;;;;18.00;17.00;;;;;12.72;58.66;101270.03;5059320;27;46508;-70
2023/04/27 05:16:06;;;;;;;;;26.75;19.50;;;;;12.77;58.82;101269.19;5066645;28;45253;-69
2023/04/27 05:18:35;;;;;;;;;17.25;14.75;;;;;12.69;59.11;101263.88;5060096;27;45512;-71
2023/04/27 05:21:01;;;;;;;;;20.50;16.00;;;;;12.70;58.95;101270.91;5090328;27;45461;-69
2023/04/27 05:23:26;;;;;;;;;17.25;16.50;;;;;12.65;58.74;101273.53;5061672;27;45555;-69
2023/04/27 05:25:52;;;;;;;;;20.25;16.50;;;;;12.70;59.21;101297.19;5053359;27;45505;-70
2023/04/27 05:28:17;;;;;;;;;19.50;16.00;;;;;12.72;58.94;101277.94;5062359;28;45449;-69
2023/04/27 05:30:43;;;;;;;;;15.00;13.75;;;;;12.63;59.45;101285.78;5074671;28;45368;-69
2023/04/27 05:33:09;;;;;;;;;15.75;13.00;;;;;12.61;59.41;101271.75;5078051;28;45626;-68
2023/04/27 05:35:34;;;;;;;;;18.75;17.75;;;;;12.67;59.57;101277.03;5078035;28;45438;-68
2023/04/27 05:38:00;;;;;;;;;18.75;17.50;;;;;12.72;58.89;101269.16;5094228;27;45378;-69
2023/04/27 05:40:26;;;;;;;;;30.50;20.25;;;;;12.70;59.29;101260.41;5076687;27;45516;-70
2023/04/27 05:42:52;;;;;;;;;21.00;19.25;;;;;12.70;58.89;101247.25;5074811;28;46244;-69
2023/04/27 05:45:18;;;;;;;;;18.75;16.75;;;;;12.80;58.70;101269.19;5088865;27;45958;-69
2023/04/27 05:47:43;;;;;;;;;32.25;23.75;;;;;12.80;58.88;101271.81;5073246;27;45536;-69
2023/04/27 05:50:10;;;;;;;;;18.25;17.00;;;;;12.68;59.01;101259.53;5074135;27;45285;-69
2023/04/27 05:52:36;;;;;;;;;18.25;16.25;;;;;12.67;59.17;101270.88;5085607;27;47824;-69
2023/04/27 05:55:01;;;;;;;;;24.00;19.75;;;;;12.64;59.24;101266.50;5073801;28;45545;-70
2023/04/27 05:57:27;;;;;;;;;22.25;18.25;;;;;12.62;58.93;101259.50;5073937;27;45371;-69
2023/04/27 05:59:53;;;;;;;;;19.50;17.25;;;;;12.63;59.15;101250.75;5071915;28;45554;-69
2023/04/27 06:02:19;;;;;;;;;19.25;16.75;;;;;12.77;59.02;101279.69;5077445;27;45423;-70
2023/04/27 06:04:45;;;;;;;;;25.75;19.25;;;;;12.80;59.37;101274.44;5077620;28;45315;-68
2023/04/27 06:07:13;;;;;;;;;18.50;16.00;;;;;12.76;59.04;101260.41;5076057;28;45299;-69
2023/04/27 06:09:40;;;;;;;;;17.75;14.75;;;;;12.76;59.17;101270.91;5071612;28;45299;-69
2023/04/27 06:12:07;;;;;;;;;19.50;15.50;;;;;12.80;59.26;101277.94;5075973;27;45269;-70
2023/04/27 06:14:34;;;;;;;;;20.75;18.00;;;;;12.74;59.11;101275.28;5073710;28;46107;-70
2023/04/27 06:17:00;;;;;;;;;19.00;16.75;;;;;12.78;59.02;101274.41;5057705;27;45800;-70
2023/04/27 06:19:26;;;;;;;;;20.00;17.50;;;;;12.78;58.72;101276.19;5072255;27;45425;-69
2023/04/27 06:21:55;;;;;;;;;21.75;16.50;;;;;12.86;58.98;101284.94;5074028;27;45977;-69
2023/04/27 06:24:22;;;;;;;;;22.75;19.25;;;;;12.79;59.24;101276.19;5090107;27;45474;-69
2023/04/27 06:26:50;;;;;;;;;23.25;19.75;;;;;12.90;58.71;101271.81;5060601;28;45535;-69
2023/04/27 06:29:16;;;;;;;;;29.00;24.25;;;;;12.94;58.42;101265.69;5071419;28;45829;-70
2023/04/27 06:31:42;;;;;;;;;24.25;19.50;;;;;12.92;58.79;101258.66;5072370;28;45852;-70
2023/04/27 06:34:07;;;;;;;;;24.25;18.50;;;;;13.01;58.44;101277.09;5068318;27;45925;-70
2023/04/27 06:36:35;;;;;;;;;21.00;18.75;;;;;12.85;58.32;101268.28;5052270;28;45509;-70
2023/04/27 06:39:01;;;;;;;;;22.75;18.00;;;;;12.85;58.74;101260.41;5052101;28;46057;-72
2023/04/27 06:41:26;;;;;;;;;20.00;17.50;;;;;13.01;57.87;101270.94;5053992;27;46617;-70
2023/04/27 06:43:53;;;;;;;;;23.25;20.25;;;;;12.96;58.17;101254.31;5069688;27;45551;-70
2023/04/27 06:46:19;;;;;;;;;22.00;21.50;;;;;13.24;56.91;101289.34;5054971;27;45441;-70
2023/04/27 06:48:45;;;;;;;;;21.50;20.25;;;;;13.19;57.09;101283.22;5055258;28;45482;-69
2023/04/27 06:51:11;;;;;;;;;25.25;19.25;;;;;13.06;57.79;101280.59;5050990;27;45646;-71
2023/04/27 06:53:38;;;;;;;;;25.00;21.50;;;;;13.14;57.46;101273.59;5050590;28;45531;-71
2023/04/27 06:56:04;;;;;;;;;25.00;24.25;;;;;13.14;57.05;101270.97;5055833;27;45507;-69
2023/04/27 06:58:30;;;;;;;;;21.25;19.25;;;;;13.33;56.45;101266.56;5060022;27;45413;-70
2023/04/27 07:00:56;;;;;;;;;22.75;19.00;;;;;13.45;55.65;101270.06;5054303;28;46766;-69
2023/04/27 07:03:21;;;;;;;;;18.00;17.50;;;;;13.45;55.82;101270.06;5070231;27;45556;-69
2023/04/27 07:05:47;;;;;;;;;22.00;17.00;;;;;13.58;55.39;101279.72;5063721;27;45489;-69
2023/04/27 07:08:12;;;;;;;;;27.25;18.50;;;;;13.68;55.00;101280.56;5066171;27;45437;-70
2023/04/27 07:10:38;;;;;;;;;15.00;14.25;;;;;13.70;54.60;101268.28;5055464;27;46558;-71
2023/04/27 07:13:04;;;;;;;;;23.00;18.00;;;;;13.83;53.99;101275.25;5055336;27;45527;-69
2023/04/27 07:15:34;;;;;;;;;17.50;16.25;;;;;13.87;53.79;101263.84;5063676;27;45331;-68
2023/04/27 07:18:00;;;;;;;;;24.00;17.75;;;;;14.03;54.03;101271.72;5092778;27;45406;-69
2023/04/27 07:20:25;;;;;;;;;22.00;19.25;;;;;14.18;52.85;101263.72;5061846;27;45970;-69
2023/04/27 07:22:51;;;;;;;;;14.50;13.75;;;;;14.20;52.64;101256.69;5059015;27;45465;-69
2023/04/27 07:25:16;;;;;;;;;20.25;16.50;;;;;14.27;52.48;101258.41;5057775;27;45532;-71
2023/04/27 07:27:42;;;;;;;;;20.25;15.75;;;;;14.43;51.37;101265.38;5056695;28;45513;-71
2023/04/27 07:30:12;;;;;;;;;14.25;11.50;;;;;14.57;50.62;101246.00;5069811;28;45750;-70
2023/04/27 07:32:40;;;;;;;;;18.00;16.50;;;;;14.43;49.71;101223.19;5073778;27;45802;-70
2023/04/27 07:35:06;;;;;;;;;17.25;14.50;;;;;14.52;49.20;101258.28;5053783;27;45743;-70
2023/04/27 07:37:31;;;;;;;;;13.25;12.25;;;;;14.58;48.54;101267.06;5055355;27;45374;-71
2023/04/27 07:39:58;;;;;;;;;12.50;12.00;;;;;14.61;48.17;101256.50;5055449;27;45782;-71
2023/04/27 07:42:24;;;;;;;;;18.50;16.75;;;;;14.68;48.59;101259.97;5055364;27;45387;-71
2023/04/27 07:44:50;;;;;;;;;15.00;13.00;;;;;14.82;48.26;101237.00;5055140;28;45453;-71
2023/04/27 07:47:17;;;;;;;;;15.75;13.25;;;;;15.11;48.62;101249.09;5055053;27;45451;-70
2023/04/27 07:49:45;;;;;;;;;15.75;13.50;;;;;15.32;47.01;101252.44;5064283;27;46133;-65
2023/04/27 07:52:11;;;;;;;;;13.00;11.25;;;;;15.35;46.56;101255.03;5064546;27;45769;-69
2023/04/27 07:54:36;;;;;;;;;12.75;12.00;;;;;14.96;45.88;101229.00;5057715;27;45377;-64
2023/04/27 07:57:08;;;;;;;;;19.25;10.00;;;;;15.01;45.02;101256.19;5054711;28;45415;-65
2023/04/27 07:59:33;;;;;;;;;9.75;9.50;;;;;15.00;45.60;101261.50;5086941;27;46386;-73
2023/04/27 08:01:59;;;;;;;;;11.00;10.00;;;;;14.95;45.13;101261.56;5054062;27;45450;-64
2023/04/27 08:04:25;;;;;;;;;12.67;11.00;;;;;14.95;44.85;101256.28;5058220;27;45459;-68
2023/04/27 08:06:51;;;;;;;;;14.33;10.00;;;;;14.88;45.39;101248.41;5055954;27;45630;-68
2023/04/27 08:09:16;;;;;;;;;11.25;9.25;;;;;14.98;45.19;101265.94;5087226;27;47245;-66
2023/04/27 08:11:42;;;;;;;;;12.00;9.67;;;;;15.01;45.28;101265.88;5052644;27;45691;-64
2023/04/27 08:14:12;;;;;;;;;13.00;12.00;;;;;15.05;44.84;101278.19;5056496;27;45437;-67
2023/04/27 08:16:41;;;;;;;;;9.67;9.67;;;;;15.09;45.49;101274.63;5059485;27;45373;-70
2023/04/27 08:19:08;;;;;;;;;12.67;10.00;;;;;15.12;45.17;101277.25;5054387;28;45677;-69
2023/04/27 08:21:35;;;;;;;;;13.00;10.00;;;;;15.22;44.99;101273.63;5065263;27;45387;-66
2023/04/27 08:24:05;;;;;;;;;13.67;9.67;;;;;15.27;45.34;101268.31;5054672;28;45303;-75
2023/04/27 08:26:32;;;;;;;;;12.67;9.67;;;;;15.16;45.72;101272.78;5064628;28;45740;-65
2023/04/27 08:28:58;;;;;;;;;11.25;11.25;;;;;15.05;45.62;101263.22;5062762;27;45577;-68
2023/04/27 08:31:25;;;;;;;;;12.00;9.67;;;;;15.09;45.43;101261.44;5064635;27;45692;-66
2023/04/27 08:33:53;;;;;;;;;18.67;10.67;;;;;15.26;46.27;101242.81;5079367;28;45419;-65
2023/04/27 08:36:26;;;;;;;;;10.67;10.67;;;;;15.28;45.48;101241.06;5095073;27;45447;-66
2023/04/27 08:38:52;;;;;;;;;10.33;7.67;;;;;15.36;45.70;101246.25;5078827;27;47812;-70
2023/04/27 08:41:22;;;;;;;;;10.00;9.33;;;;;15.43;45.93;101234.75;5100682;27;45456;-69
2023/04/27 08:43:49;;;;;;;;;10.00;9.67;;;;;15.55;45.84;101250.44;5079178;27;45354;-72
2023/04/27 08:46:22;;;;;;;;;11.33;10.33;;;;;15.59;46.06;101225.78;5075363;27;45523;-72
2023/04/27 08:48:52;;;;;;;;;11.67;8.67;;;;;15.76;45.10;101249.38;5071241;27;47066;-70
2023/04/27 08:51:19;;;;;;;;;14.00;9.67;;;;;15.79;45.81;101244.06;5058247;28;45479;-67
2023/04/27 08:53:50;;;;;;;;;10.33;8.67;;;;;15.87;45.09;101250.13;5065909;27;45394;-68
2023/04/27 08:56:21;;;;;;;;;10.33;9.67;;;;;15.88;45.32;101241.31;5058449;27;45555;-66
2023/04/27 08:58:47;;;;;;;;;8.33;8.33;;;;;16.11;45.49;101242.78;5056828;27;47668;-66
2023/04/27 09:01:13;;;;;;;;;12.67;10.67;;;;;16.25;44.94;101245.25;5054436;27;45367;-66
2023/04/27 09:03:38;;;;;;;;;12.33;11.33;;;;;16.12;45.32;101215.47;5054692;27;45500;-66
2023/04/27 09:06:04;;;;;;;;;13.00;12.00;;;;;16.35;44.94;101224.84;5055334;27;45563;-66
2023/04/27 09:08:49;;;;;;;;;12.33;9.33;;;;;16.33;44.89;101233.69;5054476;28;45456;-66
2023/04/27 09:11:37;;;;;;;;;10.67;9.33;;;;;16.31;45.18;101230.19;5061323;28;45523;-66
2023/04/27 09:14:15;;;;;;;;;7.67;7.00;;;;;16.30;45.19;101222.25;5065655;27;45519;-66
2023/04/27 09:16:41;;;;;;;;;13.00;11.33;;;;;16.25;45.35;101229.38;5055105;27;45494;-67
2023/04/27 09:19:07;;;;;;;;;11.67;10.33;;;;;15.99;45.57;101206.84;5053429;28;46289;-66
2023/04/27 09:21:33;;;;;;;;;15.67;12.00;;;;;16.24;45.66;101233.81;5056332;28;45547;-65
2023/04/27 09:24:11;;;;;;;;;10.67;10.67;;;;;16.46;45.47;101237.00;5054609;27;45540;-67
2023/04/27 09:26:37;;;;;;;;;11.33;11.33;;;;;16.54;44.96;101235.16;5068212;28;45501;-67
2023/04/27 09:29:02;;;;;;;;;10.00;9.00;;;;;16.63;45.63;101223.53;5074067;27;45353;-66
2023/04/27 09:31:32;;;;;;;;;10.67;9.33;;;;;16.91;45.10;101229.31;5089827;27;45492;-67
2023/04/27 09:33:58;;;;;;;;;10.33;6.67;;;;;16.97;45.37;101209.81;5075060;27;45642;-66
2023/04/27 09:36:24;;;;;;;;;10.33;10.33;;;;;17.16;44.40;101223.63;5075387;28;45443;-67
2023/04/27 09:38:51;;;;;;;;;9.33;9.33;;;;;17.32;44.37;101227.75;5073916;27;45602;-65
2023/04/27 09:41:17;;;;;;;;;10.67;10.00;;;;;17.38;44.64;101232.03;5073629;28;45371;-67
2023/04/27 09:43:44;;;;;;;;;8.33;8.33;;;;;17.61;44.82;101228.97;5073872;28;45487;-67
2023/04/27 09:46:12;;;;;;;;;10.67;7.00;;;;;17.71;43.64;101216.41;5107781;27;45608;-66
2023/04/27 09:48:39;;;;;;;;;12.33;8.67;;;;;17.81;44.22;101218.00;5073706;27;45483;-64
2023/04/27 09:51:05;;;;;;;;;12.00;7.67;;;;;17.86;43.64;101199.34;5072730;28;45479;-67
2023/04/27 09:53:45;;;;;;;;;13.00;10.00;;;;;18.04;43.55;101209.59;5073091;28;45563;-69
2023/04/27 09:56:41;;;;;;;;;11.33;9.67;;;;;18.05;43.53;101213.97;5073764;27;45480;-68
2023/04/27 09:59:44;;;;;;;;;11.00;9.33;;;;;18.27;42.83;101213.50;5073419;28;45629;-69
2023/04/27 10:02:14;;;;;;;;;12.00;10.00;;;;;18.33;42.62;101218.66;5074661;27;45334;-68
2023/04/27 10:05:09;;;;;;;;;8.67;8.00;;;;;18.28;42.32;101207.28;5077713;27;45424;-66
2023/04/27 10:07:39;;;;;;;;;8.00;8.00;;;;;18.38;42.35;101211.47;5074558;28;45450;-68
2023/04/27 10:10:06;;;;;;;;;11.67;8.33;;;;;18.45;42.11;101218.38;5106193;27;45796;-66
2023/04/27 10:12:35;;;;;;;;;8.00;7.00;;;;;18.31;42.05;101216.03;5072096;27;45413;-66
2023/04/27 10:15:15;;;;;;;;;12.33;10.67;;;;;18.34;42.49;101207.13;5073727;28;45421;-67
2023/04/27 10:17:57;;;;;;;;;7.00;7.00;;;;;18.57;42.38;101196.00;5072468;28;45606;-68
2023/04/27 10:20:31;;;;;;;;;8.00;7.00;;;;;18.89;41.86;101194.38;5074765;28;46678;-68
2023/04/27 10:22:59;;;;;;;;;9.67;8.00;;;;;18.61;41.61;101201.22;5077133;27;45605;-67
2023/04/27 10:25:37;;;;;;;;;7.00;7.00;;;;;18.56;42.22;101197.78;5075772;28;45516;-67
2023/04/27 10:28:03;;;;;;;;;9.00;9.00;;;;;18.60;42.24;101196.81;5062904;28;45935;-67
2023/04/27 10:30:37;;;;;;;;;6.00;6.00;;;;;18.76;42.71;101181.41;5072426;28;46774;-67
2023/04/27 10:33:08;;;;;;;;;11.33;10.33;;;;;18.95;41.40;101188.91;5077017;28;45488;-66
2023/04/27 10:35:37;;;;;;;;;9.33;8.67;;;;;18.95;41.07;101186.25;5077662;28;45379;-67
2023/04/27 10:38:20;;;;;;;;;11.67;8.67;;;;;19.05;41.90;101188.66;5077766;28;45513;-68
2023/04/27 10:41:02;;;;;;;;;12.00;11.00;;;;;19.20;41.19;101181.19;5080425;28;46464;-71
2023/04/27 10:43:30;;;;;;;;;8.33;8.33;;;;;19.12;41.50;101184.03;5080503;28;45491;-69
2023/04/27 10:46:16;;;;;;;;;8.33;8.33;;;;;19.23;41.41;101192.59;5096473;27;45530;-68
2023/04/27 10:48:43;;;;;;;;;8.00;8.00;;;;;19.31;41.06;101187.06;5078448;28;45579;-68
2023/04/27 10:51:08;;;;;;;;;7.67;7.67;;;;;19.33;41.07;101190.56;5076599;27;46584;-68
2023/04/27 10:53:35;;;;;;;;;7.00;7.00;;;;;19.53;41.34;101199.75;5075343;27;45275;-71
2023/04/27 10:56:01;;;;;;;;;8.00;7.00;;;;;19.44;40.69;101185.84;5076928;27;45390;-72
2023/04/27 10:58:27;;;;;;;;;7.33;6.00;;;;;19.49;41.10;101196.34;5077181;28;45771;-68
2023/04/27 11:00:52;;;;;;;;;8.67;7.67;;;;;19.55;41.08;101180.22;5075902;28;45649;-70
2023/04/27 11:03:20;;;;;;;;;5.00;5.00;;;;;19.88;40.78;101178.41;5080370;28;45537;-71
2023/04/27 11:05:47;;;;;;;;;13.33;8.67;;;;;20.04;40.27;101186.78;5080625;28;45415;-70
2023/04/27 11:08:16;;;;;;;;;7.00;7.00;;;;;20.23;40.32;101176.47;5080575;27;45356;-70
2023/04/27 11:10:48;;;;;;;;;7.00;7.00;;;;;20.42;39.71;101165.25;5076273;28;45639;-69
2023/04/27 11:13:15;;;;;;;;;7.00;7.00;;;;;20.52;39.61;101161.34;5074775;28;45407;-69
2023/04/27 11:15:49;;;;;;;;;7.00;7.00;;;;;20.67;39.52;101160.03;5076182;27;45390;-71